Time;durP1;ratioP1;P1;durP2;ratioP2;P2;SDS_P1;SDS_P2;PMS_P1;PMS_P2;Temp;Humidity;BMP_temperature;BMP_pressure;BME280_temperature;BME280_humidity;BME280_pressure;Samples;Min_cycle;Max_cycle;Signal;HPM_P1;HPM_P2
2021/10/01 00:01:12;;;;;;;24.35;14.18;;;3.70;99.90;;;;;;5052270;28;20057;-84
2021/10/01 00:03:37;;;;;;;21.13;14.43;;;3.70;99.90;;;;;;5050808;28;20110;-83
2021/10/01 00:06:03;;;;;;;25.38;14.10;;;3.70;99.90;;;;;;5052348;28;20538;-83
2021/10/01 00:08:29;;;;;;;24.23;16.05;;;3.70;99.90;;;;;;5050790;28;20021;-83
2021/10/01 00:10:57;;;;;;;22.10;13.52;;;3.70;99.90;;;;;;5050921;28;20028;-83
2021/10/01 00:13:23;;;;;;;26.05;14.90;;;3.60;99.90;;;;;;5052075;28;20021;-83
2021/10/01 00:15:49;;;;;;;23.50;14.45;;;3.60;99.90;;;;;;5052381;28;20056;-83
2021/10/01 00:18:15;;;;;;;19.90;11.05;;;3.60;99.90;;;;;;5054331;28;20063;-84
2021/10/01 00:20:40;;;;;;;16.83;11.98;;;3.60;99.90;;;;;;5054296;28;20082;-84
2021/10/01 00:23:06;;;;;;;24.58;13.57;;;3.60;99.90;;;;;;5054908;28;20104;-84
2021/10/01 00:25:32;;;;;;;19.75;13.07;;;3.60;99.90;;;;;;5054097;28;20025;-84
2021/10/01 00:27:57;;;;;;;23.95;13.65;;;3.70;99.90;;;;;;5054281;28;20475;-84
2021/10/01 00:30:23;;;;;;;21.25;12.00;;;3.70;99.90;;;;;;5055111;28;20025;-84
2021/10/01 00:32:52;;;;;;;35.25;15.48;;;3.80;99.90;;;;;;5054055;28;20025;-84
2021/10/01 00:35:18;;;;;;;23.27;13.20;;;3.80;99.90;;;;;;5055383;28;20028;-84
2021/10/01 00:37:43;;;;;;;21.08;12.98;;;3.80;99.90;;;;;;5053963;28;20028;-84
2021/10/01 00:40:10;;;;;;;23.02;15.88;;;3.70;99.90;;;;;;5053852;28;20040;-84
2021/10/01 00:42:36;;;;;;;19.75;12.98;;;3.70;99.90;;;;;;5053882;28;20190;-84
2021/10/01 00:45:02;;;;;;;20.52;13.52;;;3.60;99.90;;;;;;5055184;28;20486;-83
2021/10/01 00:47:28;;;;;;;26.73;14.82;;;3.50;99.90;;;;;;5053832;28;20048;-83
2021/10/01 00:49:54;;;;;;;21.77;12.48;;;3.50;99.90;;;;;;5053542;28;20506;-83
2021/10/01 00:52:20;;;;;;;21.30;13.35;;;3.50;99.90;;;;;;5055024;28;20067;-83
2021/10/01 00:54:45;;;;;;;22.13;11.77;;;3.50;99.90;;;;;;5054973;28;20537;-83
2021/10/01 00:57:11;;;;;;;19.55;12.80;;;3.50;99.90;;;;;;5054953;28;20444;-83
2021/10/01 00:59:37;;;;;;;22.33;12.75;;;3.50;99.90;;;;;;5053344;28;20021;-83
2021/10/01 01:02:03;;;;;;;19.83;13.07;;;3.40;99.90;;;;;;5054604;28;20044;-83
2021/10/01 01:04:29;;;;;;;23.80;13.38;;;3.40;99.90;;;;;;5053455;28;20056;-83
2021/10/01 01:07:33;;;;;;;21.55;12.55;;;3.50;99.90;;;;;;5054810;28;20445;-83
2021/10/01 01:10:15;;;;;;;26.77;14.02;;;3.40;99.90;;;;;;5053494;28;20037;-84
2021/10/01 01:12:49;;;;;;;33.70;17.67;;;3.40;99.90;;;;;;5053508;28;20025;-84
2021/10/01 01:15:21;;;;;;;24.27;14.57;;;3.40;99.90;;;;;;5053373;28;20025;-84
2021/10/01 01:18:03;;;;;;;26.58;15.90;;;3.40;99.90;;;;;;5054498;28;20040;-84
2021/10/01 01:20:43;;;;;;;25.92;13.60;;;3.40;99.90;;;;;;5052429;28;20468;-84
2021/10/01 01:23:09;;;;;;;23.20;13.82;;;3.30;99.90;;;;;;5051743;28;20021;-84
2021/10/01 01:25:44;;;;;;;27.05;13.57;;;3.30;99.90;;;;;;5052354;28;20112;-84
2021/10/01 01:28:12;;;;;;;26.25;13.65;;;3.30;99.90;;;;;;5053963;28;20033;-84
2021/10/01 01:30:42;;;;;;;24.05;13.77;;;3.30;99.90;;;;;;5052219;28;20025;-83
2021/10/01 01:33:13;;;;;;;18.33;12.15;;;3.20;99.90;;;;;;5054019;28;20573;-84
2021/10/01 01:35:41;;;;;;;24.20;11.75;;;3.20;99.90;;;;;;5052734;28;20547;-84
2021/10/01 01:38:15;;;;;;;28.83;14.30;;;3.20;99.90;;;;;;5051217;28;20033;-83
2021/10/01 01:40:51;;;;;;;24.33;13.70;;;3.10;99.90;;;;;;5051078;28;20023;-83
2021/10/01 01:43:18;;;;;;;22.35;13.65;;;3.20;99.90;;;;;;5051602;28;20029;-84
2021/10/01 01:45:44;;;;;;;23.75;15.10;;;3.10;99.90;;;;;;5052978;28;20021;-83
2021/10/01 01:48:11;;;;;;;28.85;15.05;;;3.10;99.90;;;;;;5052930;28;20024;-83
2021/10/01 01:50:38;;;;;;;24.38;12.80;;;3.00;99.90;;;;;;5054021;28;20082;-83
2021/10/01 01:53:06;;;;;;;21.48;13.15;;;3.00;99.90;;;;;;5053911;28;20483;-83
2021/10/01 01:55:33;;;;;;;25.10;13.68;;;2.90;99.90;;;;;;5053803;28;20540;-83
2021/10/01 01:58:00;;;;;;;23.88;13.30;;;2.90;99.90;;;;;;5052584;28;20509;-83
2021/10/01 02:00:27;;;;;;;27.40;14.90;;;2.80;99.90;;;;;;5051928;28;20474;-83
2021/10/01 02:02:54;;;;;;;29.00;16.90;;;2.80;99.90;;;;;;5052400;28;20036;-83
2021/10/01 02:05:21;;;;;;;37.20;18.83;;;2.80;99.90;;;;;;5053381;28;20059;-84
2021/10/01 02:07:49;;;;;;;38.60;19.63;;;2.70;99.90;;;;;;5053678;28;20035;-83
2021/10/01 02:10:17;;;;;;;46.33;21.13;;;2.70;99.90;;;;;;5032379;28;20030;-84
2021/10/01 02:12:46;;;;;;;36.58;19.27;;;2.70;99.90;;;;;;5033842;28;20021;-83
2021/10/01 02:15:13;;;;;;;42.35;19.42;;;2.60;99.90;;;;;;5033477;28;20105;-83
2021/10/01 02:17:42;;;;;;;35.08;19.30;;;2.60;99.90;;;;;;5032270;28;20021;-83
2021/10/01 02:20:10;;;;;;;31.35;16.88;;;2.50;99.90;;;;;;5065461;28;20033;-83
2021/10/01 02:22:36;;;;;;;36.03;17.30;;;2.50;99.90;;;;;;5073219;28;20387;-85
2021/10/01 02:25:04;;;;;;;31.88;18.23;;;2.50;99.90;;;;;;5033386;28;20018;-85
2021/10/01 02:27:36;;;;;;;38.95;19.25;;;2.40;99.90;;;;;;5033612;28;20029;-85
2021/10/01 02:30:10;;;;;;;29.67;15.65;;;2.40;99.90;;;;;;5051458;28;20025;-84
2021/10/01 02:32:42;;;;;;;32.72;16.08;;;2.40;99.90;;;;;;5051855;28;20492;-84
2021/10/01 02:35:08;;;;;;;23.90;14.30;;;2.40;99.90;;;;;;5051936;28;20021;-85
2021/10/01 02:37:35;;;;;;;30.67;15.55;;;2.50;99.90;;;;;;5052917;28;20025;-84
2021/10/01 02:40:04;;;;;;;23.35;13.75;;;2.50;99.90;;;;;;5051007;28;20032;-84
2021/10/01 02:42:30;;;;;;;20.58;12.73;;;2.50;99.90;;;;;;5051947;28;20044;-84
2021/10/01 02:44:57;;;;;;;21.52;12.80;;;2.50;99.90;;;;;;5050591;28;20382;-85
2021/10/01 02:47:29;;;;;;;20.77;13.35;;;2.50;99.90;;;;;;5050851;28;20025;-84
2021/10/01 02:49:56;;;;;;;24.40;13.75;;;2.50;99.90;;;;;;5052945;28;20424;-84
2021/10/01 02:52:44;;;;;;;27.70;14.23;;;2.50;99.90;;;;;;5051397;28;20104;-84
2021/10/01 02:55:09;;;;;;;25.55;14.68;;;2.60;99.90;;;;;;5050158;28;20029;-84
2021/10/01 02:58:24;;;;;;;19.98;11.43;;;2.60;99.90;;;;;;5051051;28;20033;-84
2021/10/01 03:00:52;;;;;;;19.10;11.63;;;2.60;99.90;;;;;;5031369;28;20490;-86
2021/10/01 03:03:23;;;;;;;20.00;11.25;;;2.70;99.90;;;;;;5050745;28;20438;-85
2021/10/01 03:05:52;;;;;;;20.25;12.85;;;2.70;99.90;;;;;;5052780;28;20021;-84
2021/10/01 03:08:19;;;;;;;20.63;11.93;;;2.80;99.90;;;;;;5051224;28;20032;-84
2021/10/01 03:10:48;;;;;;;27.27;13.57;;;2.80;99.90;;;;;;5051484;28;20051;-83
2021/10/01 03:13:21;;;;;;;22.05;12.85;;;2.70;99.90;;;;;;5049636;28;20512;-84
2021/10/01 03:15:50;;;;;;;20.05;10.55;;;2.50;99.90;;;;;;5048891;28;20029;-84
2021/10/01 03:18:16;;;;;;;22.92;11.25;;;2.30;99.90;;;;;;5050481;28;20108;-85
2021/10/01 03:20:43;;;;;;;17.80;11.15;;;2.30;99.90;;;;;;5051207;28;20359;-84
2021/10/01 03:23:10;;;;;;;18.88;10.50;;;2.30;99.90;;;;;;5050094;28;20064;-85
2021/10/01 03:25:38;;;;;;;21.35;12.32;;;2.30;99.90;;;;;;5050092;28;20032;-84
2021/10/01 03:28:05;;;;;;;21.08;13.43;;;2.30;99.90;;;;;;5045922;28;20106;-84
2021/10/01 03:30:31;;;;;;;23.95;13.57;;;2.50;99.90;;;;;;5048121;28;20398;-84
2021/10/01 03:32:57;;;;;;;23.63;13.50;;;2.50;99.90;;;;;;5049673;28;20360;-84
2021/10/01 03:35:23;;;;;;;25.63;14.38;;;2.50;99.90;;;;;;5049667;28;20028;-84
2021/10/01 03:37:48;;;;;;;25.00;14.32;;;2.60;99.90;;;;;;5048202;28;20031;-83
2021/10/01 03:40:14;;;;;;;26.38;12.98;;;2.60;99.90;;;;;;5048338;28;20444;-84
2021/10/01 03:42:41;;;;;;;25.40;12.52;;;2.70;99.90;;;;;;5048833;28;20041;-83
2021/10/01 03:45:08;;;;;;;24.33;13.02;;;2.70;99.90;;;;;;5048436;28;20493;-84
2021/10/01 03:47:34;;;;;;;26.73;14.20;;;2.70;99.90;;;;;;5046734;28;20049;-83
2021/10/01 03:50:01;;;;;;;25.10;14.30;;;2.80;99.90;;;;;;5048208;28;20025;-83
2021/10/01 03:52:26;;;;;;;20.42;12.80;;;3.00;99.90;;;;;;5052790;28;20230;-83
2021/10/01 03:54:53;;;;;;;26.48;13.98;;;3.00;99.90;;;;;;5054338;28;20025;-83
2021/10/01 03:57:19;;;;;;;21.58;13.80;;;3.10;99.90;;;;;;5053335;28;20051;-84
2021/10/01 03:59:44;;;;;;;30.95;14.43;;;3.00;99.90;;;;;;5054748;28;20021;-83
2021/10/01 04:02:10;;;;;;;25.45;12.88;;;3.10;99.90;;;;;;5055697;28;20029;-83
2021/10/01 04:04:36;;;;;;;25.55;13.43;;;3.10;99.90;;;;;;5055907;28;20029;-84
2021/10/01 04:07:02;;;;;;;32.75;14.77;;;3.10;99.90;;;;;;5056031;28;20025;-84
2021/10/01 04:09:29;;;;;;;34.45;15.98;;;3.10;99.90;;;;;;5054464;28;20029;-84
2021/10/01 04:11:56;;;;;;;37.03;13.98;;;3.20;99.90;;;;;;5049304;28;20013;-84
2021/10/01 04:14:23;;;;;;;32.08;15.98;;;3.20;99.90;;;;;;5047424;28;20021;-84
2021/10/01 04:16:49;;;;;;;37.53;16.45;;;3.30;99.90;;;;;;5048129;28;20066;-84
2021/10/01 04:19:15;;;;;;;29.25;14.73;;;3.30;99.90;;;;;;5046532;28;20025;-84
2021/10/01 04:21:42;;;;;;;25.65;13.38;;;3.40;99.90;;;;;;5043497;28;20663;-84
2021/10/01 04:24:07;;;;;;;26.38;13.40;;;3.40;99.90;;;;;;5049647;28;20033;-84
2021/10/01 04:26:33;;;;;;;25.40;14.60;;;3.40;99.90;;;;;;5042415;28;20133;-84
2021/10/01 04:28:59;;;;;;;24.00;12.68;;;3.40;99.90;;;;;;5044323;28;20028;-84
2021/10/01 04:31:24;;;;;;;25.50;14.23;;;3.50;99.90;;;;;;5043829;28;20063;-84
2021/10/01 04:33:50;;;;;;;24.10;15.20;;;3.50;99.90;;;;;;5050260;28;20053;-84
2021/10/01 04:36:16;;;;;;;26.15;13.45;;;3.50;99.90;;;;;;5040280;28;20037;-84
2021/10/01 04:38:42;;;;;;;26.65;14.38;;;3.50;99.90;;;;;;5045461;28;20036;-84
2021/10/01 04:41:07;;;;;;;25.75;13.95;;;3.40;99.90;;;;;;5044394;28;20026;-84
2021/10/01 04:43:33;;;;;;;22.02;12.80;;;3.30;99.90;;;;;;5048614;28;20071;-84
2021/10/01 04:45:59;;;;;;;20.48;13.00;;;3.30;99.90;;;;;;5049072;28;20121;-84
2021/10/01 04:48:25;;;;;;;20.10;12.70;;;3.30;99.90;;;;;;5044215;28;20029;-83
2021/10/01 04:50:51;;;;;;;22.00;12.13;;;3.20;99.90;;;;;;5043116;28;20028;-84
2021/10/01 04:53:17;;;;;;;22.92;11.40;;;3.20;99.90;;;;;;5041415;28;20025;-83
2021/10/01 04:55:46;;;;;;;28.77;13.40;;;3.10;99.90;;;;;;5044938;28;20021;-84
2021/10/01 04:58:11;;;;;;;21.83;11.05;;;3.10;99.90;;;;;;5043987;28;20027;-84
2021/10/01 05:00:37;;;;;;;22.83;13.82;;;3.10;99.90;;;;;;5038138;28;20033;-84
2021/10/01 05:03:03;;;;;;;25.90;14.02;;;3.20;99.90;;;;;;5044277;28;20029;-83
2021/10/01 05:05:28;;;;;;;34.30;17.17;;;3.10;99.90;;;;;;5049457;28;20453;-83
2021/10/01 05:07:54;;;;;;;48.55;20.85;;;3.20;99.90;;;;;;5036175;28;20037;-84
2021/10/01 05:10:20;;;;;;;57.85;24.63;;;3.10;99.90;;;;;;5040629;28;20022;-83
2021/10/01 05:12:47;;;;;;;77.30;31.30;;;3.10;99.90;;;;;;5042212;28;20071;-83
2021/10/01 05:15:14;;;;;;;107.82;37.92;;;3.10;99.90;;;;;;5032921;28;20036;-84
2021/10/01 05:17:40;;;;;;;111.45;36.90;;;3.20;99.90;;;;;;5033123;28;20036;-83
2021/10/01 05:20:09;;;;;;;82.75;32.83;;;3.20;99.90;;;;;;5032419;28;20018;-83
2021/10/01 05:22:36;;;;;;;79.55;28.60;;;3.30;99.90;;;;;;5032732;28;20041;-85
2021/10/01 05:25:03;;;;;;;83.68;29.98;;;3.30;99.90;;;;;;5064128;28;20104;-84
2021/10/01 05:27:29;;;;;;;80.20;28.27;;;3.30;99.90;;;;;;5065871;28;20040;-83
2021/10/01 05:29:55;;;;;;;80.03;27.13;;;3.40;99.90;;;;;;5032000;28;20022;-82
2021/10/01 05:32:21;;;;;;;68.35;24.67;;;3.40;99.90;;;;;;5031364;28;20048;-81
2021/10/01 05:34:47;;;;;;;68.55;26.08;;;3.40;99.90;;;;;;5047043;28;20079;-84
2021/10/01 05:37:13;;;;;;;69.82;25.05;;;3.50;99.90;;;;;;5047591;28;20037;-84
2021/10/01 05:39:40;;;;;;;47.30;22.75;;;3.60;99.90;;;;;;5034595;28;20495;-83
2021/10/01 05:42:05;;;;;;;55.10;22.60;;;3.70;99.90;;;;;;5032931;28;20091;-83
2021/10/01 05:44:31;;;;;;;43.97;22.80;;;3.80;99.90;;;;;;5032703;28;20029;-84
2021/10/01 05:47:01;;;;;;;51.95;26.30;;;3.90;99.90;;;;;;5034007;28;20018;-84
2021/10/01 05:49:31;;;;;;;57.17;28.13;;;4.10;99.90;;;;;;5034171;28;20025;-85
2021/10/01 05:52:13;;;;;;;55.88;28.58;;;4.40;99.90;;;;;;5032831;28;20028;-85
2021/10/01 05:54:38;;;;;;;55.70;25.15;;;4.60;99.90;;;;;;5032718;28;20025;-84
2021/10/01 05:57:06;;;;;;;52.80;29.60;;;4.80;99.90;;;;;;5038756;28;20520;-85
2021/10/01 05:59:32;;;;;;;58.40;32.42;;;5.10;99.90;;;;;;5052387;28;20028;-85
2021/10/01 06:01:58;;;;;;;61.85;33.92;;;5.30;99.90;;;;;;5036409;28;20400;-85
2021/10/01 06:04:23;;;;;;;60.50;29.30;;;5.50;99.90;;;;;;5039530;28;20029;-85
2021/10/01 06:06:49;;;;;;;61.47;31.90;;;5.70;99.90;;;;;;5053962;28;20482;-84
2021/10/01 06:09:18;;;;;;;44.60;26.98;;;5.80;99.90;;;;;;5052297;28;20021;-84
2021/10/01 06:11:43;;;;;;;50.10;27.25;;;5.90;99.90;;;;;;5052276;28;20036;-84
2021/10/01 06:14:10;;;;;;;51.22;28.90;;;6.10;99.90;;;;;;5032697;28;20018;-84
2021/10/01 06:16:36;;;;;;;46.92;29.58;;;6.20;99.90;;;;;;5032276;28;20523;-84
2021/10/01 06:19:03;;;;;;;49.83;31.02;;;6.30;99.90;;;;;;5031889;28;20116;-85
2021/10/01 06:21:29;;;;;;;48.35;29.00;;;6.40;99.90;;;;;;5051074;28;20072;-84
2021/10/01 06:23:55;;;;;;;45.28;27.90;;;6.60;99.90;;;;;;5051883;28;20067;-84
2021/10/01 06:26:21;;;;;;;48.72;29.65;;;6.70;99.90;;;;;;5051503;28;20032;-84
2021/10/01 06:28:47;;;;;;;47.38;26.48;;;6.80;99.90;;;;;;5051765;28;20021;-85
2021/10/01 06:31:12;;;;;;;44.20;27.23;;;7.00;99.90;;;;;;5051839;28;20059;-84
2021/10/01 06:33:38;;;;;;;46.10;26.27;;;7.10;99.90;;;;;;5049186;28;20466;-85
2021/10/01 06:36:05;;;;;;;50.75;28.63;;;7.20;99.90;;;;;;5047045;28;20052;-85
2021/10/01 06:38:31;;;;;;;53.85;30.05;;;7.30;99.90;;;;;;5051595;28;20036;-85
2021/10/01 06:40:58;;;;;;;50.22;28.92;;;7.50;99.90;;;;;;5052144;28;20565;-84
2021/10/01 06:43:26;;;;;;;50.13;28.05;;;7.60;99.90;;;;;;5051666;28;20099;-84
2021/10/01 06:45:54;;;;;;;51.63;28.42;;;7.70;99.90;;;;;;5051745;28;20505;-84
2021/10/01 06:48:46;;;;;;;44.72;29.10;;;7.90;99.90;;;;;;5052849;28;20075;-84
2021/10/01 06:51:28;;;;;;;42.92;25.60;;;8.00;99.90;;;;;;5053062;28;20501;-85
2021/10/01 08:18:35;;;;;;;23.17;13.55;;;12.30;99.90;;;;;;5055580;28;20428;-85
2021/10/01 08:21:01;;;;;;;24.98;16.05;;;12.40;99.90;;;;;;5054556;28;20101;-86
2021/10/01 08:23:27;;;;;;;18.15;13.82;;;12.50;99.90;;;;;;5054303;28;20115;-86
2021/10/01 08:25:52;;;;;;;19.75;12.70;;;12.60;99.90;;;;;;5054454;28;20416;-86
2021/10/01 08:28:18;;;;;;;17.77;10.75;;;12.60;99.90;;;;;;5055523;28;20029;-86
2021/10/01 08:30:44;;;;;;;12.07;9.30;;;12.70;99.90;;;;;;5055541;28;20029;-85
2021/10/01 08:33:10;;;;;;;11.18;8.65;;;12.70;99.90;;;;;;5053995;28;20025;-86
2021/10/01 08:35:35;;;;;;;15.15;9.70;;;12.80;99.90;;;;;;5054110;28;20108;-85
2021/10/01 08:38:01;;;;;;;15.25;10.57;;;12.90;99.90;;;;;;5052710;28;20488;-86
2021/10/01 08:40:27;;;;;;;18.77;10.45;;;12.80;99.90;;;;;;5055415;28;20044;-85
2021/10/01 08:42:54;;;;;;;14.80;9.90;;;12.60;99.90;;;;;;5054953;28;20041;-86
2021/10/01 08:45:22;;;;;;;50.17;29.77;;;12.60;99.90;;;;;;5055270;28;20021;-85
2021/10/01 08:47:49;;;;;;;29.15;19.38;;;12.50;99.90;;;;;;5053633;28;20029;-85
2021/10/01 08:50:19;;;;;;;18.73;12.82;;;12.50;99.90;;;;;;5055106;28;20033;-86
2021/10/01 08:52:45;;;;;;;17.85;11.10;;;12.50;99.90;;;;;;5053852;28;20108;-86
2021/10/01 08:55:11;;;;;;;15.30;10.23;;;12.30;99.90;;;;;;5055338;28;20025;-86
2021/10/01 08:57:38;;;;;;;15.65;10.15;;;12.30;99.90;;;;;;5053699;28;20071;-86
2021/10/01 09:00:07;;;;;;;13.50;10.18;;;12.40;99.90;;;;;;5055020;28;20485;-85
2021/10/01 09:02:33;;;;;;;11.35;8.38;;;12.60;99.90;;;;;;5054726;28;20044;-86
2021/10/01 09:04:58;;;;;;;10.93;7.70;;;12.50;99.90;;;;;;5053583;28;20021;-86
2021/10/01 09:07:25;;;;;;;12.20;8.27;;;12.70;99.90;;;;;;5053484;28;20478;-85
2021/10/01 09:09:55;;;;;;;11.88;8.52;;;12.70;99.90;;;;;;5053481;28;20033;-86
2021/10/01 09:12:22;;;;;;;9.20;7.45;;;12.70;99.90;;;;;;5054763;28;20049;-86
2021/10/01 09:14:52;;;;;;;9.05;7.53;;;12.80;99.90;;;;;;5053395;28;20040;-86
2021/10/01 09:17:22;;;;;;;10.00;6.60;;;12.80;99.90;;;;;;5054946;28;20025;-86
2021/10/01 09:19:49;;;;;;;11.73;6.93;;;12.90;97.60;;;;;;5054217;28;20105;-86
2021/10/01 09:22:33;;;;;;;10.10;7.53;;;12.90;97.60;;;;;;5053075;28;20021;-87
2021/10/01 09:25:14;;;;;;;8.32;6.28;;;13.10;98.20;;;;;;5053265;28;20387;-87
2021/10/01 09:27:42;;;;;;;8.55;7.10;;;13.10;92.00;;;;;;5053158;28;20025;-87
2021/10/01 09:30:09;;;;;;;11.75;7.30;;;13.10;94.30;;;;;;5053134;28;20029;-87
2021/10/01 09:32:35;;;;;;;8.38;5.80;;;13.10;94.30;;;;;;5053960;28;20017;-87
2021/10/01 09:35:13;;;;;;;8.73;4.88;;;13.30;93.30;;;;;;5053018;28;20044;-87
2021/10/01 09:37:39;;;;;;;6.40;5.13;;;13.40;91.40;;;;;;5053007;28;20025;-87
2021/10/01 09:40:06;;;;;;;9.20;6.43;;;13.40;88.40;;;;;;5054119;28;20439;-87
2021/10/01 09:42:44;;;;;;;7.88;5.38;;;13.30;89.30;;;;;;5052664;28;20039;-86
2021/10/01 09:45:11;;;;;;;8.13;4.75;;;13.30;84.10;;;;;;5051754;28;20065;-87
2021/10/01 09:47:47;;;;;;;6.63;4.70;;;13.40;87.50;;;;;;5046305;28;20017;-86
2021/10/01 09:50:16;;;;;;;8.63;5.05;;;13.40;85.30;;;;;;5032507;28;20026;-87
2021/10/01 09:52:42;;;;;;;6.40;4.78;;;13.40;83.80;;;;;;5050624;28;20112;-86
2021/10/01 09:55:08;;;;;;;8.02;5.18;;;13.40;85.20;;;;;;5050417;28;20104;-85
2021/10/01 09:57:39;;;;;;;10.35;5.35;;;13.30;82.40;;;;;;5050222;28;20199;-86
2021/10/01 10:00:07;;;;;;;7.68;5.90;;;13.40;84.80;;;;;;5051258;28;20028;-87
2021/10/01 10:02:37;;;;;;;7.25;4.30;;;13.40;85.10;;;;;;5051240;28;20386;-86
2021/10/01 10:05:04;;;;;;;7.50;4.78;;;13.40;86.00;;;;;;5049685;28;20009;-86
2021/10/01 10:07:29;;;;;;;7.85;5.38;;;13.50;85.90;;;;;;5052042;28;20033;-87
2021/10/01 10:10:02;;;;;;;5.65;4.90;;;13.70;89.70;;;;;;5045716;28;20458;-86
2021/10/01 10:12:35;;;;;;;5.57;4.10;;;13.70;88.00;;;;;;5049972;28;20090;-87
2021/10/01 10:15:03;;;;;;;5.63;4.20;;;13.70;83.30;;;;;;5050040;28;20052;-86
2021/10/01 10:17:30;;;;;;;7.22;4.30;;;13.70;81.10;;;;;;5048052;28;20028;-87
2021/10/01 10:20:03;;;;;;;7.90;4.57;;;13.80;82.80;;;;;;5051086;28;20096;-87
2021/10/01 10:22:31;;;;;;;6.18;3.67;;;13.70;82.00;;;;;;5050315;28;20045;-86
2021/10/01 10:24:57;;;;;;;6.03;3.78;;;13.70;81.20;;;;;;5049916;28;20029;-88
2021/10/01 10:27:27;;;;;;;4.55;3.95;;;13.80;83.40;;;;;;5049878;28;20155;-86
2021/10/01 10:29:53;;;;;;;6.95;4.32;;;13.90;85.00;;;;;;5049465;28;20021;-87
2021/10/01 10:32:22;;;;;;;6.28;4.82;;;13.90;86.20;;;;;;5050032;28;20033;-88
2021/10/01 10:34:58;;;;;;;6.18;4.57;;;14.00;87.30;;;;;;5049324;28;20385;-87
2021/10/01 10:37:42;;;;;;;7.25;4.20;;;14.00;84.10;;;;;;5050053;28;20036;-86
2021/10/01 10:40:16;;;;;;;8.57;4.95;;;14.10;86.60;;;;;;5051404;28;20033;-86
2021/10/01 10:42:50;;;;;;;9.45;5.95;;;14.20;89.40;;;;;;5049650;28;20395;-87
2021/10/01 10:45:24;;;;;;;6.57;4.80;;;14.20;87.90;;;;;;5051644;28;20017;-87
2021/10/01 10:48:05;;;;;;;8.38;5.70;;;14.20;89.30;;;;;;5049387;28;20037;-87
2021/10/01 10:50:40;;;;;;;6.45;5.65;;;14.10;91.60;;;;;;5050023;28;20096;-87
2021/10/01 10:53:16;;;;;;;9.05;6.68;;;14.10;91.50;;;;;;5048665;28;20040;-87
2021/10/01 10:55:51;;;;;;;8.88;7.32;;;14.10;93.60;;;;;;5050010;28;20410;-87
2021/10/01 10:58:26;;;;;;;9.02;7.60;;;14.00;94.40;;;;;;5051529;28;20031;-87
2021/10/01 11:01:23;;;;;;;7.53;6.55;;;14.00;95.30;;;;;;5050787;28;20394;-87
2021/10/01 11:03:52;;;;;;;10.35;8.32;;;14.10;98.30;;;;;;5051524;28;20041;-87
2021/10/01 11:06:18;;;;;;;9.20;8.20;;;13.90;98.00;;;;;;5051516;28;20051;-86
2021/10/01 11:08:46;;;;;;;9.98;7.88;;;13.90;99.90;;;;;;5052662;28;20021;-87
2021/10/01 11:11:33;;;;;;;8.63;7.07;;;13.90;99.20;;;;;;5051823;28;20071;-86
2021/10/01 11:14:25;;;;;;;7.40;6.28;;;13.90;99.90;;;;;;5051169;28;20033;-87
2021/10/01 11:16:53;;;;;;;11.87;6.90;;;14.00;99.70;;;;;;5051297;28;20048;-87
2021/10/01 11:19:38;;;;;;;8.45;6.95;;;13.90;98.10;;;;;;5052584;28;20267;-87
2021/10/01 11:22:23;;;;;;;12.63;9.65;;;14.00;99.80;;;;;;5029900;28;20078;-88
2021/10/01 11:24:54;;;;;;;10.45;8.27;;;13.90;99.90;;;;;;5028942;28;20041;-86
2021/10/01 11:27:20;;;;;;;10.98;8.63;;;13.90;99.90;;;;;;5029884;28;20025;-87
2021/10/01 11:29:46;;;;;;;11.73;9.27;;;13.90;99.90;;;;;;5028573;28;20110;-87
2021/10/01 11:32:20;;;;;;;12.82;8.70;;;13.90;99.90;;;;;;5030128;28;20533;-86
2021/10/01 11:34:55;;;;;;;11.70;8.32;;;13.90;99.90;;;;;;5032697;28;20376;-86
2021/10/01 11:37:29;;;;;;;10.07;8.65;;;14.00;99.90;;;;;;5049143;28;20509;-86
2021/10/01 11:39:58;;;;;;;11.68;8.38;;;14.10;99.90;;;;;;5048133;28;20091;-87
2021/10/01 11:42:30;;;;;;;10.63;8.07;;;14.20;99.90;;;;;;5049057;28;20041;-86
2021/10/01 11:44:58;;;;;;;9.60;8.10;;;14.30;99.90;;;;;;5048672;28;20360;-86
2021/10/01 11:47:24;;;;;;;9.30;7.53;;;14.40;99.90;;;;;;5049598;28;20025;-87
2021/10/01 11:49:55;;;;;;;8.68;7.30;;;14.50;99.30;;;;;;5047863;28;20033;-87
2021/10/01 11:52:22;;;;;;;9.07;7.90;;;14.40;99.30;;;;;;5048889;28;20352;-87
2021/10/01 11:54:57;;;;;;;9.57;7.10;;;14.40;99.90;;;;;;5048747;28;20040;-86
2021/10/01 11:57:36;;;;;;;9.88;7.28;;;14.50;99.90;;;;;;5049334;28;20024;-85
2021/10/01 12:00:06;;;;;;;8.55;7.13;;;14.60;99.90;;;;;;5033758;28;20029;-85
2021/10/01 12:02:39;;;;;;;10.77;7.00;;;14.70;98.80;;;;;;5040855;28;20041;-86
2021/10/01 12:05:32;;;;;;;10.98;8.63;;;14.70;98.80;;;;;;5049576;28;20506;-85
2021/10/01 12:08:05;;;;;;;10.38;8.25;;;14.70;98.70;;;;;;5047955;28;20035;-84
2021/10/01 12:10:35;;;;;;;;;;;14.60;97.50;;;;;;5050884;28;20017;-86
2021/10/01 12:13:01;;;;;;;9.05;6.93;;;14.40;99.90;;;;;;5051800;28;20380;-86
2021/10/01 12:15:40;;;;;;;9.13;6.72;;;14.10;99.90;;;;;;5054096;28;20037;-86
2021/10/01 12:18:08;;;;;;;9.60;6.60;;;14.00;99.90;;;;;;5053669;28;20021;-87
2021/10/01 12:20:44;;;;;;;9.25;6.78;;;13.90;99.90;;;;;;5050611;28;20021;-87
2021/10/01 12:23:21;;;;;;;7.68;6.35;;;13.90;99.90;;;;;;5035145;28;20487;-84
2021/10/01 12:25:50;;;;;;;7.85;6.65;;;14.10;99.90;;;;;;5035683;28;20112;-84
2021/10/01 12:28:17;;;;;;;12.30;6.63;;;14.20;99.90;;;;;;5054567;28;20553;-86
2021/10/01 12:30:42;;;;;;;7.22;5.82;;;14.50;99.90;;;;;;5054372;28;20025;-86
2021/10/01 12:33:09;;;;;;;8.68;6.43;;;14.60;97.90;;;;;;5054215;28;20109;-87
2021/10/01 12:35:36;;;;;;;10.30;8.00;;;14.60;98.90;;;;;;5053996;28;20021;-86
2021/10/01 12:38:02;;;;;;;13.38;7.57;;;14.80;99.90;;;;;;5053092;28;20470;-87
2021/10/01 12:40:27;;;;;;;29.75;19.88;;;14.90;99.90;;;;;;5053936;28;20044;-87
2021/10/01 12:42:53;;;;;;;11.98;9.05;;;15.00;98.50;;;;;;5045809;28;20087;-86
2021/10/01 12:45:20;;;;;;;22.85;14.82;;;15.10;99.90;;;;;;5033882;28;20054;-85
2021/10/01 12:47:50;;;;;;;25.77;16.25;;;14.90;97.30;;;;;;5067456;28;20422;-86
2021/10/01 12:50:19;;;;;;;19.35;12.68;;;14.80;99.90;;;;;;5035521;28;20018;-86
2021/10/01 12:52:53;;;;;;;9.32;6.93;;;14.80;99.90;;;;;;5066599;28;20032;-85
2021/10/01 12:55:19;;;;;;;26.55;19.60;;;14.70;99.90;;;;;;5033845;28;20379;-87
2021/10/01 12:57:50;;;;;;;8.45;6.50;;;14.60;99.90;;;;;;5067249;28;20021;-85
2021/10/01 13:00:21;;;;;;;6.93;5.18;;;14.40;99.90;;;;;;5033667;28;20057;-85
2021/10/01 13:03:03;;;;;;;13.43;10.32;;;14.20;99.90;;;;;;5034828;28;20487;-85
2021/10/01 13:05:31;;;;;;;11.80;8.17;;;14.30;99.90;;;;;;5066708;28;20022;-85
2021/10/01 13:07:56;;;;;;;11.70;8.23;;;14.30;99.90;;;;;;5033781;28;20467;-85
2021/10/01 13:10:40;;;;;;;10.45;7.70;;;14.40;99.90;;;;;;5041142;28;20070;-85
2021/10/01 13:13:12;;;;;;;10.00;7.45;;;14.50;99.90;;;;;;5054655;28;20025;-85
2021/10/01 13:15:39;;;;;;;14.25;10.27;;;14.50;99.90;;;;;;5054652;28;20032;-86
2021/10/01 13:18:23;;;;;;;9.57;7.00;;;14.50;99.90;;;;;;5053626;28;20108;-87
2021/10/01 13:21:09;;;;;;;11.48;8.18;;;14.50;99.90;;;;;;5052818;28;20040;-86
2021/10/01 13:23:39;;;;;;;13.05;9.80;;;14.60;99.90;;;;;;5052448;28;20554;-86
2021/10/01 13:26:10;;;;;;;13.75;8.55;;;14.70;99.90;;;;;;5053268;28;20119;-86
2021/10/01 13:28:36;;;;;;;10.38;7.15;;;14.90;99.90;;;;;;5054476;28;20025;-86
2021/10/01 13:31:01;;;;;;;7.90;6.47;;;15.00;99.90;;;;;;5052715;28;20021;-86
2021/10/01 13:33:27;;;;;;;8.82;5.80;;;15.00;96.70;;;;;;5054078;28;20033;-86
2021/10/01 13:35:55;;;;;;;8.00;5.88;;;14.90;98.90;;;;;;5048537;28;20024;-86
2021/10/01 13:38:30;;;;;;;7.43;5.57;;;14.90;99.90;;;;;;5050342;28;20482;-85
2021/10/01 13:40:56;;;;;;;11.90;6.68;;;14.80;99.90;;;;;;5050406;28;20131;-86
2021/10/01 13:43:23;;;;;;;10.20;6.43;;;14.70;99.90;;;;;;5052332;28;20032;-85
2021/10/01 13:45:52;;;;;;;8.07;6.50;;;14.70;99.90;;;;;;5049971;28;20055;-85
2021/10/01 13:48:17;;;;;;;7.90;5.95;;;14.50;99.90;;;;;;5050825;28;20104;-84
2021/10/01 13:50:48;;;;;;;8.63;5.90;;;14.40;99.90;;;;;;5045833;28;20132;-85
2021/10/01 13:53:14;;;;;;;8.25;5.85;;;14.40;99.90;;;;;;5048424;28;20033;-85
2021/10/01 13:55:43;;;;;;;10.27;5.95;;;14.40;99.90;;;;;;5050438;28;20086;-84
2021/10/01 13:58:30;;;;;;;9.18;5.63;;;14.50;99.90;;;;;;5052004;28;20541;-84
2021/10/01 14:01:05;;;;;;;9.98;6.70;;;14.60;99.90;;;;;;5049634;28;20040;-84
2021/10/01 14:03:32;;;;;;;9.88;7.35;;;14.50;99.90;;;;;;5051626;28;20478;-85
2021/10/01 14:05:57;;;;;;;9.52;8.27;;;14.40;99.90;;;;;;5048789;28;20052;-85
2021/10/01 14:08:24;;;;;;;12.73;9.50;;;14.40;99.90;;;;;;5050917;28;20036;-86
2021/10/01 14:10:50;;;;;;;10.18;7.75;;;14.30;99.90;;;;;;5032000;28;20060;-84
2021/10/01 14:13:17;;;;;;;8.95;6.53;;;14.30;99.90;;;;;;5052021;28;20029;-86